Time;durP1;ratioP1;P1;durP2;ratioP2;P2;SDS_P1;SDS_P2;PMS_P1;PMS_P2;Temp;Humidity;BMP_temperature;BMP_pressure;BME280_temperature;BME280_humidity;BME280_pressure;Samples;Min_cycle;Max_cycle;Signal;HPM_P1;HPM_P2
2023/07/04 00:01:48;;;;;;;17.75;7.93;;;21.10;99.90;;;;;;5124208;27;20436;-85
2023/07/04 00:04:23;;;;;;;21.33;7.88;;;21.10;99.90;;;;;;5133430;28;20023;-82
2023/07/04 00:06:50;;;;;;;14.02;7.43;;;21.10;99.90;;;;;;5134201;27;20038;-84
2023/07/04 00:09:17;;;;;;;14.43;7.97;;;21.00;99.90;;;;;;5139418;27;20023;-75
2023/07/04 00:11:43;;;;;;;16.85;7.55;;;21.00;99.90;;;;;;5148120;27;20025;-87
2023/07/04 00:14:09;;;;;;;20.27;8.55;;;20.90;99.90;;;;;;5137500;27;20015;-77
2023/07/04 00:16:35;;;;;;;15.63;7.55;;;20.90;99.90;;;;;;5131694;27;20034;-76
2023/07/04 00:19:06;;;;;;;15.75;7.35;;;20.70;99.90;;;;;;5119781;27;20436;-87
2023/07/04 00:21:32;;;;;;;16.30;8.57;;;20.70;99.90;;;;;;5160181;27;20019;-80
2023/07/04 00:23:58;;;;;;;19.55;7.57;;;20.70;99.90;;;;;;5159027;27;20101;-85
2023/07/04 00:26:26;;;;;;;14.95;7.97;;;20.70;99.90;;;;;;5150031;27;20073;-82
2023/07/04 00:28:52;;;;;;;16.08;7.45;;;20.70;99.90;;;;;;5139418;27;20027;-85
2023/07/04 00:31:22;;;;;;;20.40;9.27;;;20.80;99.90;;;;;;5158343;27;20084;-74
2023/07/04 00:33:50;;;;;;;19.98;8.13;;;20.70;99.90;;;;;;5110740;27;20031;-74
2023/07/04 00:36:18;;;;;;;14.77;7.80;;;20.70;99.90;;;;;;5125773;27;20047;-82
2023/07/04 00:38:48;;;;;;;12.18;6.78;;;20.70;99.90;;;;;;5132332;27;20110;-86
2023/07/04 00:41:16;;;;;;;15.35;8.10;;;20.70;99.90;;;;;;5137085;27;20023;-85
2023/07/04 00:43:45;;;;;;;15.38;6.63;;;20.70;99.90;;;;;;5136956;27;20383;-81
2023/07/04 00:46:14;;;;;;;18.20;7.55;;;20.70;99.90;;;;;;5158068;27;20023;-81
2023/07/04 00:48:47;;;;;;;12.70;6.78;;;20.70;99.90;;;;;;5111273;27;20026;-74
2023/07/04 00:51:21;;;;;;;15.73;7.90;;;20.70;99.90;;;;;;5119383;27;20037;-81
2023/07/04 00:53:54;;;;;;;14.45;8.35;;;20.70;99.90;;;;;;5122841;27;20065;-78
2023/07/04 00:56:25;;;;;;;14.35;7.18;;;20.70;99.90;;;;;;5131205;27;20047;-86
2023/07/04 00:58:58;;;;;;;16.55;8.80;;;20.70;99.90;;;;;;5132404;27;20080;-85
2023/07/04 01:01:24;;;;;;;15.30;8.10;;;20.60;99.90;;;;;;5136120;27;20088;-86
2023/07/04 01:03:50;;;;;;;14.45;7.43;;;20.60;99.90;;;;;;5114050;27;20031;-79
2023/07/04 01:06:20;;;;;;;13.70;8.02;;;20.60;99.90;;;;;;5121416;27;20229;-80
2023/07/04 01:08:55;;;;;;;15.57;8.07;;;20.60;99.90;;;;;;5117922;27;20039;-85
2023/07/04 01:11:32;;;;;;;14.95;7.63;;;20.50;99.90;;;;;;5157091;27;20019;-75
2023/07/04 01:13:58;;;;;;;15.85;9.15;;;20.60;99.90;;;;;;5137453;27;20026;-74
2023/07/04 01:16:25;;;;;;;14.98;8.52;;;20.60;99.90;;;;;;5136613;27;20087;-84
2023/07/04 01:18:56;;;;;;;16.05;7.38;;;20.60;99.90;;;;;;5148479;27;20027;-75
2023/07/04 01:21:25;;;;;;;13.90;7.22;;;20.60;99.90;;;;;;5123090;27;20023;-85
2023/07/04 01:24:11;;;;;;;16.65;8.45;;;20.60;99.90;;;;;;5150575;27;20458;-77
2023/07/04 01:26:41;;;;;;;18.17;8.52;;;20.60;99.90;;;;;;5136109;27;20027;-84
2023/07/04 01:29:10;;;;;;;18.40;8.23;;;20.60;99.90;;;;;;5107622;27;20058;-80
2023/07/04 01:31:36;;;;;;;14.73;7.20;;;20.60;99.90;;;;;;5138064;27;20070;-80
2023/07/04 01:34:05;;;;;;;20.10;9.45;;;20.60;99.90;;;;;;5148925;27;20019;-75
2023/07/04 01:36:34;;;;;;;18.73;8.95;;;20.60;99.90;;;;;;5125658;27;20127;-85
2023/07/04 01:39:00;;;;;;;15.68;8.52;;;20.60;99.90;;;;;;5145193;27;20058;-78
2023/07/04 01:41:28;;;;;;;16.67;8.20;;;20.50;99.90;;;;;;5119570;27;20091;-86
2023/07/04 01:44:02;;;;;;;17.73;8.68;;;20.50;99.90;;;;;;5116227;27;20026;-84
2023/07/04 01:46:29;;;;;;;17.02;8.50;;;20.50;99.90;;;;;;5107130;27;20403;-74
2023/07/04 01:48:56;;;;;;;16.92;7.80;;;20.50;99.90;;;;;;5147530;27;20036;-85
2023/07/04 01:51:34;;;;;;;20.33;7.78;;;20.50;99.90;;;;;;5135688;27;20027;-84
2023/07/04 01:54:01;;;;;;;16.73;8.10;;;20.40;99.90;;;;;;5119650;27;20063;-80
2023/07/04 01:56:29;;;;;;;16.92;8.25;;;20.20;99.90;;;;;;5128288;27;20046;-75
2023/07/04 01:58:55;;;;;;;17.35;8.52;;;20.20;99.90;;;;;;5117960;27;20150;-74
2023/07/04 02:01:22;;;;;;;16.35;9.00;;;20.20;99.90;;;;;;5130284;27;20029;-75
2023/07/04 02:03:48;;;;;;;16.80;8.52;;;20.20;99.90;;;;;;5139157;27;20126;-74
2023/07/04 02:06:15;;;;;;;19.67;10.18;;;20.10;99.90;;;;;;5127508;27;20054;-75
2023/07/04 02:08:42;;;;;;;16.85;9.32;;;20.00;99.90;;;;;;5118465;27;20031;-75
2023/07/04 02:11:08;;;;;;;16.60;8.82;;;20.00;99.90;;;;;;5132393;27;20071;-75
2023/07/04 02:13:34;;;;;;;15.98;9.25;;;20.00;99.90;;;;;;5151551;27;20023;-75
2023/07/04 02:16:00;;;;;;;17.05;9.40;;;19.90;99.90;;;;;;5133043;27;20175;-76
2023/07/04 02:18:26;;;;;;;21.50;9.18;;;19.90;99.90;;;;;;5128772;27;20022;-76
2023/07/04 02:20:52;;;;;;;18.95;8.90;;;20.00;99.90;;;;;;5115443;27;20028;-75
2023/07/04 02:23:18;;;;;;;17.95;10.18;;;20.00;99.90;;;;;;5124226;27;20030;-75
2023/07/04 02:25:44;;;;;;;19.70;9.85;;;20.00;99.90;;;;;;5148284;27;20019;-78
2023/07/04 02:28:10;;;;;;;19.83;11.50;;;20.00;99.90;;;;;;5117986;27;20089;-76
2023/07/04 02:30:37;;;;;;;32.00;14.10;;;20.00;99.90;;;;;;5134123;27;20019;-76
2023/07/04 02:33:03;;;;;;;29.55;13.45;;;19.90;99.90;;;;;;5135476;27;20031;-85
2023/07/04 02:35:30;;;;;;;27.35;17.10;;;19.90;99.90;;;;;;5116378;27;20031;-79
2023/07/04 02:37:57;;;;;;;29.80;16.50;;;20.00;99.90;;;;;;5090330;28;20056;-84
2023/07/04 02:40:24;;;;;;;25.63;14.32;;;20.00;99.90;;;;;;5099103;27;20027;-75
2023/07/04 02:42:50;;;;;;;20.70;11.63;;;20.00;99.90;;;;;;5116810;27;20531;-80
2023/07/04 02:45:16;;;;;;;17.77;9.77;;;19.90;99.90;;;;;;5146065;27;20058;-78
2023/07/04 02:47:42;;;;;;;18.77;10.30;;;19.80;99.90;;;;;;5123795;27;20029;-86
2023/07/04 02:50:15;;;;;;;18.75;9.77;;;19.80;99.90;;;;;;5125539;27;20027;-76
2023/07/04 02:52:41;;;;;;;21.05;11.07;;;19.80;99.90;;;;;;5124007;27;20034;-84
2023/07/04 02:55:08;;;;;;;16.80;10.38;;;19.70;99.90;;;;;;5123837;27;20381;-81
2023/07/04 02:57:35;;;;;;;18.42;10.70;;;19.80;99.90;;;;;;5121960;27;20022;-76
2023/07/04 03:00:01;;;;;;;17.83;10.90;;;19.90;99.90;;;;;;5124754;27;20027;-75
2023/07/04 03:02:31;;;;;;;23.30;13.07;;;20.00;99.90;;;;;;5122948;27;20031;-75
2023/07/04 03:04:57;;;;;;;19.80;11.65;;;20.10;99.90;;;;;;5119060;27;20043;-77
2023/07/04 03:07:26;;;;;;;25.55;13.95;;;20.20;99.90;;;;;;5122187;27;20103;-75
2023/07/04 03:09:53;;;;;;;21.02;12.35;;;20.20;99.90;;;;;;5100629;27;20042;-76
2023/07/04 03:12:22;;;;;;;21.30;13.52;;;20.30;99.90;;;;;;5120823;27;20023;-75
2023/07/04 03:14:48;;;;;;;24.60;14.00;;;20.40;99.90;;;;;;5124265;27;20083;-75
2023/07/04 03:17:14;;;;;;;25.42;13.43;;;20.40;99.90;;;;;;5127376;27;20358;-74
2023/07/04 03:19:41;;;;;;;22.83;12.98;;;20.30;99.90;;;;;;5122463;27;20087;-75
2023/07/04 03:22:07;;;;;;;23.50;13.07;;;20.40;99.90;;;;;;5129753;27;20027;-74
2023/07/04 03:24:33;;;;;;;20.48;11.32;;;20.50;99.90;;;;;;5119349;27;20068;-75
2023/07/04 03:27:00;;;;;;;21.60;12.15;;;20.60;99.90;;;;;;5135389;27;20035;-75
2023/07/04 03:29:26;;;;;;;18.25;11.57;;;20.60;99.90;;;;;;5122699;27;20015;-76
2023/07/04 03:31:54;;;;;;;20.23;11.30;;;20.60;99.90;;;;;;5115081;27;20027;-81
2023/07/04 03:34:22;;;;;;;23.90;10.43;;;20.60;99.90;;;;;;5120042;27;20029;-85
2023/07/04 03:36:48;;;;;;;18.88;9.65;;;20.70;99.90;;;;;;5124928;27;20068;-79
2023/07/04 03:39:13;;;;;;;18.67;10.38;;;20.70;99.90;;;;;;5132972;27;20023;-76
2023/07/04 03:41:39;;;;;;;16.42;9.95;;;20.50;99.90;;;;;;5140720;27;20027;-79
2023/07/04 03:44:07;;;;;;;15.60;8.90;;;20.60;99.90;;;;;;5112228;27;20019;-75
2023/07/04 03:46:32;;;;;;;23.20;9.88;;;20.50;99.90;;;;;;5123529;28;20023;-74
2023/07/04 03:48:58;;;;;;;19.10;10.07;;;20.20;99.90;;;;;;5118294;27;20022;-75
2023/07/04 03:51:24;;;;;;;20.38;9.50;;;20.30;99.90;;;;;;5154502;27;20026;-74
2023/07/04 03:53:50;;;;;;;18.67;9.50;;;20.30;99.90;;;;;;5120602;27;20048;-84
2023/07/04 03:56:16;;;;;;;17.98;8.25;;;20.40;99.90;;;;;;5144280;27;20476;-75
2023/07/04 03:58:42;;;;;;;17.23;9.20;;;20.10;99.90;;;;;;5136002;27;20050;-78
2023/07/04 04:01:07;;;;;;;18.33;9.73;;;20.00;99.90;;;;;;5099428;28;20076;-83
2023/07/04 04:03:37;;;;;;;16.80;8.73;;;20.00;99.90;;;;;;5127678;28;20037;-85
2023/07/04 04:06:05;;;;;;;20.05;8.95;;;20.20;99.90;;;;;;5112992;28;20384;-76
2023/07/04 04:08:31;;;;;;;18.02;9.10;;;20.30;99.90;;;;;;5132568;28;20110;-79
2023/07/04 04:10:57;;;;;;;19.95;9.27;;;20.20;99.90;;;;;;5133879;28;20054;-79
2023/07/04 04:13:23;;;;;;;17.13;8.02;;;20.10;99.90;;;;;;5148210;27;20451;-87
2023/07/04 04:15:50;;;;;;;15.75;8.70;;;20.00;99.90;;;;;;5134214;27;20095;-86
2023/07/04 04:18:17;;;;;;;16.23;8.57;;;20.10;99.90;;;;;;5147260;27;20024;-76
2023/07/04 04:20:42;;;;;;;16.65;8.82;;;20.20;99.90;;;;;;5146969;27;20022;-86
2023/07/04 04:23:08;;;;;;;15.32;8.18;;;20.30;99.90;;;;;;5134086;27;20027;-86
2023/07/04 04:25:38;;;;;;;20.98;9.25;;;20.60;99.90;;;;;;5144652;27;20030;-75
2023/07/04 04:28:05;;;;;;;24.15;9.40;;;21.10;99.90;;;;;;5122102;27;20375;-86
2023/07/04 04:30:31;;;;;;;11.70;6.75;;;22.60;99.90;;;;;;5153920;27;20014;-76
2023/07/04 04:32:56;;;;;;;15.15;7.43;;;23.70;99.90;;;;;;5133212;28;20106;-84
2023/07/04 04:35:23;;;;;;;19.27;7.75;;;24.00;99.90;;;;;;5133677;27;20176;-73
2023/07/04 04:37:49;;;;;;;19.75;7.93;;;23.60;99.90;;;;;;5137896;27;20056;-83
2023/07/04 04:40:15;;;;;;;15.77;7.93;;;23.20;99.90;;;;;;5132817;28;20030;-82
2023/07/04 04:42:43;;;;;;;14.13;7.05;;;24.40;99.90;;;;;;5122569;27;20467;-77
2023/07/04 04:45:11;;;;;;;15.88;7.88;;;24.10;99.90;;;;;;5152076;27;20037;-75
2023/07/04 04:47:39;;;;;;;16.30;8.40;;;23.80;99.90;;;;;;5147824;27;20023;-77
2023/07/04 04:50:06;;;;;;;14.18;7.57;;;23.60;99.90;;;;;;5133627;28;20443;-75
2023/07/04 04:52:32;;;;;;;19.65;8.68;;;23.10;99.90;;;;;;5152522;27;20015;-83
2023/07/04 04:55:02;;;;;;;18.35;8.98;;;23.00;99.90;;;;;;5150050;27;20055;-73
2023/07/04 04:57:29;;;;;;;19.60;6.90;;;22.80;99.90;;;;;;5143947;27;20031;-75
2023/07/04 04:59:59;;;;;;;16.20;7.57;;;22.90;99.90;;;;;;5145765;27;20019;-77
2023/07/04 05:02:25;;;;;;;13.77;7.28;;;23.00;99.90;;;;;;5148090;27;20035;-82
2023/07/04 05:04:51;;;;;;;12.85;7.80;;;23.20;99.90;;;;;;5132172;27;20469;-75
2023/07/04 05:07:18;;;;;;;16.00;8.35;;;23.20;99.90;;;;;;5150997;27;20042;-78
2023/07/04 05:09:44;;;;;;;13.50;6.95;;;23.40;99.90;;;;;;5142519;27;20023;-81
2023/07/04 05:12:10;;;;;;;15.73;7.78;;;23.40;99.90;;;;;;5141334;27;20034;-83
2023/07/04 05:14:35;;;;;;;15.25;7.35;;;23.40;99.90;;;;;;5151731;27;20041;-74
2023/07/04 05:17:01;;;;;;;18.63;7.38;;;23.30;99.90;;;;;;5149320;27;20047;-83
2023/07/04 05:19:27;;;;;;;18.13;8.02;;;23.40;99.90;;;;;;5149447;27;20019;-78
2023/07/04 05:21:53;;;;;;;14.73;7.78;;;23.50;99.90;;;;;;5125425;27;20030;-82
2023/07/04 05:24:19;;;;;;;15.40;7.22;;;23.50;99.90;;;;;;5137842;27;20460;-83
2023/07/04 05:26:45;;;;;;;13.90;7.63;;;23.30;99.90;;;;;;5157646;27;20027;-84
2023/07/04 05:29:10;;;;;;;16.70;7.95;;;23.20;99.90;;;;;;5156080;27;20026;-85
2023/07/04 05:31:36;;;;;;;15.02;7.80;;;22.70;99.90;;;;;;5134960;27;20070;-84
2023/07/04 05:34:02;;;;;;;12.38;6.97;;;23.20;99.90;;;;;;5112275;27;20129;-82
2023/07/04 05:36:30;;;;;;;16.65;6.70;;;23.50;99.90;;;;;;5135986;27;20054;-81
2023/07/04 05:38:59;;;;;;;14.45;6.97;;;23.40;99.90;;;;;;5153562;27;20038;-84
2023/07/04 05:41:28;;;;;;;15.18;6.88;;;23.60;99.90;;;;;;5157286;27;20556;-83
2023/07/04 05:43:56;;;;;;;13.35;6.32;;;23.50;99.90;;;;;;5146313;27;20468;-83
2023/07/04 05:46:22;;;;;;;18.90;7.40;;;23.90;99.90;;;;;;5145701;27;20023;-77
2023/07/04 05:48:47;;;;;;;11.73;6.15;;;24.50;99.90;;;;;;5157754;27;20023;-75
2023/07/04 05:51:16;;;;;;;13.40;6.57;;;24.70;99.90;;;;;;5157169;27;20031;-87
2023/07/04 05:53:45;;;;;;;15.30;6.97;;;25.00;99.90;;;;;;5139498;27;20050;-85
2023/07/04 05:56:21;;;;;;;13.85;6.55;;;25.20;99.90;;;;;;5125265;27;20074;-75
2023/07/04 05:58:49;;;;;;;13.27;7.38;;;25.60;99.90;;;;;;5130587;27;20022;-78
2023/07/04 06:01:22;;;;;;;13.60;7.05;;;25.70;99.90;;;;;;5147575;27;20086;-77
2023/07/04 06:03:49;;;;;;;12.07;7.00;;;25.80;99.90;;;;;;5106298;27;20035;-76
2023/07/04 06:06:25;;;;;;;12.45;6.03;;;26.10;99.90;;;;;;5150830;27;20033;-75
2023/07/04 06:08:53;;;;;;;14.27;6.15;;;26.40;99.90;;;;;;5147824;27;20107;-85
2023/07/04 06:11:21;;;;;;;15.63;6.20;;;26.40;99.90;;;;;;5137801;27;20342;-81
2023/07/04 06:13:47;;;;;;;14.55;6.53;;;26.70;99.90;;;;;;5139752;27;20547;-77
2023/07/04 06:16:13;;;;;;;15.65;6.60;;;26.80;99.30;;;;;;5145525;27;20033;-83
2023/07/04 06:18:39;;;;;;;16.50;6.30;;;27.10;98.60;;;;;;5116406;27;20039;-84
2023/07/04 06:21:18;;;;;;;8.35;5.30;;;27.40;99.00;;;;;;5123042;27;20054;-85
2023/07/04 06:23:45;;;;;;;14.77;6.20;;;26.90;97.20;;;;;;5147410;27;20114;-85
2023/07/04 06:26:12;;;;;;;13.40;5.70;;;26.90;97.50;;;;;;5131714;27;20038;-83
2023/07/04 06:28:39;;;;;;;11.57;6.22;;;27.20;98.20;;;;;;5135200;27;20035;-77
2023/07/04 06:31:07;;;;;;;10.23;5.13;;;27.50;97.00;;;;;;5134764;27;20043;-83
2023/07/04 06:33:34;;;;;;;11.85;5.93;;;27.60;95.70;;;;;;5135313;27;20016;-84
2023/07/04 06:36:00;;;;;;;11.23;5.80;;;27.10;95.30;;;;;;5134867;27;20506;-80
2023/07/04 06:38:27;;;;;;;12.35;5.88;;;27.90;95.90;;;;;;5111116;27;20031;-83
2023/07/04 06:40:58;;;;;;;11.77;5.47;;;28.20;95.10;;;;;;5131993;27;20031;-83
2023/07/04 06:43:24;;;;;;;13.73;5.57;;;28.60;95.20;;;;;;5135044;27;20376;-84
2023/07/04 06:45:50;;;;;;;12.15;5.80;;;28.90;95.10;;;;;;5149331;27;20022;-77
2023/07/04 06:48:17;;;;;;;12.95;5.70;;;28.80;93.50;;;;;;5135142;27;20019;-76
2023/07/04 06:50:45;;;;;;;13.80;6.13;;;28.90;93.60;;;;;;5148872;27;20030;-76
2023/07/04 06:53:11;;;;;;;12.85;6.10;;;29.20;93.70;;;;;;5135921;27;20019;-76
2023/07/04 06:55:37;;;;;;;14.85;6.05;;;28.20;93.70;;;;;;5134713;27;20031;-80
2023/07/04 06:58:04;;;;;;;20.00;5.97;;;28.50;94.50;;;;;;5116874;27;20433;-84
2023/07/04 07:00:30;;;;;;;13.52;5.28;;;28.70;95.40;;;;;;5148131;27;20098;-76
2023/07/04 07:02:56;;;;;;;16.67;5.90;;;28.20;93.70;;;;;;5136896;27;20064;-82
2023/07/04 07:05:22;;;;;;;15.40;5.50;;;28.80;94.70;;;;;;5134552;27;20034;-76
2023/07/04 07:07:48;;;;;;;13.93;6.30;;;28.90;94.10;;;;;;5144299;27;20030;-84
2023/07/04 07:10:14;;;;;;;23.27;6.28;;;28.80;93.80;;;;;;5145918;27;20018;-82
2023/07/04 07:12:39;;;;;;;14.57;6.43;;;29.00;93.20;;;;;;5143381;27;20052;-76
2023/07/04 07:15:05;;;;;;;12.15;5.60;;;28.80;93.60;;;;;;5152712;27;20038;-75
2023/07/04 07:17:34;;;;;;;16.00;6.50;;;29.00;93.60;;;;;;5153361;27;20022;-84
2023/07/04 07:20:00;;;;;;;10.23;5.93;;;29.30;93.50;;;;;;5141699;27;20028;-85
2023/07/04 07:22:26;;;;;;;13.57;5.97;;;29.10;95.20;;;;;;5141394;27;20037;-87
2023/07/04 07:24:52;;;;;;;12.82;6.25;;;29.20;94.10;;;;;;5134292;27;20055;-85
2023/07/04 07:27:17;;;;;;;14.43;6.57;;;29.40;93.60;;;;;;5141982;27;20031;-74
2023/07/04 07:29:47;;;;;;;14.27;6.03;;;29.40;93.00;;;;;;5133943;27;20026;-75
2023/07/04 07:32:13;;;;;;;12.63;6.25;;;28.60;93.20;;;;;;5142587;27;20022;-75
2023/07/04 07:34:39;;;;;;;16.17;6.75;;;28.90;94.00;;;;;;5140034;27;20469;-76
2023/07/04 07:37:07;;;;;;;18.65;7.13;;;29.20;94.00;;;;;;5117824;27;20493;-76
2023/07/04 07:39:33;;;;;;;14.77;7.75;;;29.40;93.00;;;;;;5092679;28;20044;-75
2023/07/04 07:42:00;;;;;;;13.07;7.07;;;29.40;92.70;;;;;;5100612;28;20165;-75
2023/07/04 07:44:26;;;;;;;14.55;6.72;;;29.40;92.90;;;;;;5099411;28;20069;-75
2023/07/04 07:46:52;;;;;;;10.85;6.15;;;29.50;92.90;;;;;;5113024;28;20024;-75
2023/07/04 07:49:17;;;;;;;11.60;6.50;;;28.80;91.70;;;;;;5094734;28;20036;-84
2023/07/04 07:51:43;;;;;;;17.75;7.63;;;29.20;92.50;;;;;;5099603;28;20363;-75
2023/07/04 07:54:10;;;;;;;12.38;6.70;;;29.40;91.10;;;;;;5106088;28;20058;-75
2023/07/04 07:56:43;;;;;;;10.02;6.15;;;29.70;91.60;;;;;;5096112;28;20156;-77
2023/07/04 07:59:08;;;;;;;15.07;7.40;;;29.90;91.10;;;;;;5076112;28;20388;-76
2023/07/04 08:01:34;;;;;;;15.23;6.93;;;30.40;91.40;;;;;;5100987;28;20032;-76
2023/07/04 08:04:02;;;;;;;11.60;6.60;;;30.80;92.10;;;;;;5097652;28;20024;-75
2023/07/04 08:06:30;;;;;;;14.25;6.97;;;30.70;91.40;;;;;;5092395;28;20032;-75
2023/07/04 08:08:58;;;;;;;18.92;5.82;;;30.40;91.00;;;;;;5114121;28;20028;-82
2023/07/04 08:11:25;;;;;;;14.05;6.22;;;30.10;90.70;;;;;;5091296;28;20028;-83
2023/07/04 08:13:52;;;;;;;11.95;5.65;;;29.80;90.70;;;;;;5095438;28;20028;-82
2023/07/04 08:16:38;;;;;;;14.98;6.28;;;29.80;90.40;;;;;;5110597;28;20038;-75
2023/07/04 08:19:04;;;;;;;9.95;6.13;;;30.10;90.40;;;;;;5104665;28;20021;-75
2023/07/04 08:21:29;;;;;;;9.27;5.45;;;30.30;90.60;;;;;;5112682;28;20034;-75
2023/07/04 08:23:55;;;;;;;16.70;5.43;;;30.80;90.40;;;;;;5094733;28;20492;-76
2023/07/04 08:26:23;;;;;;;9.75;5.85;;;31.10;89.30;;;;;;5112779;28;20031;-77
2023/07/04 08:28:56;;;;;;;9.40;5.43;;;30.80;87.40;;;;;;5113046;28;20027;-75
2023/07/04 08:31:22;;;;;;;17.15;5.80;;;30.60;89.20;;;;;;5109572;28;20027;-76
2023/07/04 08:33:49;;;;;;;10.82;5.25;;;30.50;88.90;;;;;;5113359;28;20084;-76
2023/07/04 08:36:16;;;;;;;12.73;5.28;;;30.40;90.20;;;;;;5120892;27;20047;-81
2023/07/04 08:38:43;;;;;;;13.90;5.43;;;30.50;89.40;;;;;;5139887;27;20503;-77
2023/07/04 08:41:18;;;;;;;9.98;5.80;;;30.10;88.90;;;;;;5138020;27;20023;-76
2023/07/04 08:44:08;;;;;;;14.68;5.50;;;30.40;87.80;;;;;;5127559;27;20501;-80
2023/07/04 08:46:38;;;;;;;9.25;5.22;;;30.40;89.60;;;;;;5105937;28;20055;-75
2023/07/04 08:49:05;;;;;;;10.98;5.95;;;30.30;88.00;;;;;;5118913;27;20403;-76
2023/07/04 08:51:46;;;;;;;13.85;5.85;;;30.20;85.90;;;;;;5119479;27;20468;-83
2023/07/04 08:54:12;;;;;;;9.95;5.43;;;30.40;88.10;;;;;;5126865;27;20031;-83
2023/07/04 08:56:39;;;;;;;8.48;5.00;;;30.40;86.30;;;;;;5122133;27;20069;-75
2023/07/04 08:59:18;;;;;;;12.43;5.25;;;30.40;86.20;;;;;;5120147;27;20027;-78
2023/07/04 09:02:08;;;;;;;10.68;5.18;;;30.70;89.00;;;;;;5139940;27;20361;-73
2023/07/04 09:04:37;;;;;;;9.00;5.05;;;30.70;84.10;;;;;;5131383;27;20023;-73
2023/07/04 09:07:24;;;;;;;11.15;5.82;;;30.80;84.50;;;;;;5131071;27;20027;-74
2023/07/04 09:09:50;;;;;;;11.88;5.63;;;30.90;84.60;;;;;;5115579;27;20032;-73
2023/07/04 09:12:16;;;;;;;10.90;5.32;;;31.10;84.10;;;;;;5139247;27;20488;-75
2023/07/04 09:14:54;;;;;;;8.57;5.15;;;31.00;84.60;;;;;;5125137;27;20083;-76
2023/07/04 09:17:31;;;;;;;14.27;6.22;;;31.20;83.80;;;;;;5115009;27;20039;-80
2023/07/04 09:19:58;;;;;;;11.20;5.55;;;30.90;81.20;;;;;;5137992;27;20027;-74
2023/07/04 09:22:24;;;;;;;10.45;5.43;;;31.10;82.50;;;;;;5138046;27;20396;-77
2023/07/04 09:24:50;;;;;;;11.65;5.60;;;31.30;84.30;;;;;;5138441;27;20080;-73
2023/07/04 09:27:17;;;;;;;9.30;5.63;;;30.90;81.90;;;;;;5108226;27;20408;-74
2023/07/04 09:29:44;;;;;;;11.10;5.45;;;30.90;82.20;;;;;;5120488;27;20477;-74
2023/07/04 09:32:10;;;;;;;12.68;5.65;;;31.00;83.50;;;;;;5126773;27;20371;-74
2023/07/04 09:34:51;;;;;;;9.93;4.78;;;31.50;83.20;;;;;;5118661;27;20464;-73
2023/07/04 09:37:23;;;;;;;11.48;5.40;;;31.30;82.60;;;;;;5105302;27;20051;-79
2023/07/04 09:39:58;;;;;;;17.83;4.65;;;31.50;83.70;;;;;;5153568;27;20015;-83
2023/07/04 09:42:40;;;;;;;9.70;5.13;;;31.60;84.30;;;;;;5150700;27;20023;-74
2023/07/04 09:45:11;;;;;;;9.23;4.85;;;31.50;83.00;;;;;;5153652;27;20027;-74
2023/07/04 09:47:43;;;;;;;12.73;4.25;;;31.40;82.30;;;;;;5147344;27;20023;-74
2023/07/04 09:50:10;;;;;;;11.75;5.35;;;31.40;85.50;;;;;;5138983;27;20024;-74
2023/07/04 09:52:38;;;;;;;12.13;5.38;;;31.50;82.10;;;;;;5136084;27;20026;-74
2023/07/04 09:55:26;;;;;;;8.48;4.85;;;31.40;83.00;;;;;;5169135;27;20502;-75
2023/07/04 09:57:53;;;;;;;8.95;5.10;;;31.50;81.70;;;;;;5166906;27;20361;-83
2023/07/04 10:00:21;;;;;;;10.07;5.32;;;31.70;84.40;;;;;;5147471;27;20028;-84
2023/07/04 10:02:52;;;;;;;10.05;4.60;;;30.90;82.40;;;;;;5146058;27;20041;-72
2023/07/04 10:05:23;;;;;;;9.02;4.72;;;31.20;81.80;;;;;;5153242;27;20023;-77
2023/07/04 10:08:08;;;;;;;9.75;4.70;;;31.10;83.20;;;;;;5124547;27;20025;-78
2023/07/04 10:10:52;;;;;;;9.27;5.05;;;30.80;81.80;;;;;;5155882;27;20476;-75
2023/07/04 10:13:22;;;;;;;12.50;4.97;;;31.10;81.70;;;;;;5166432;27;20027;-78
2023/07/04 10:15:49;;;;;;;10.10;4.50;;;31.30;83.60;;;;;;5164252;27;20105;-80
2023/07/04 10:18:27;;;;;;;10.95;4.85;;;31.30;81.10;;;;;;5166830;27;20007;-78
2023/07/04 10:20:57;;;;;;;12.52;5.60;;;31.60;86.20;;;;;;5161662;27;20467;-87
2023/07/04 10:23:26;;;;;;;8.45;4.53;;;31.90;84.00;;;;;;5136614;27;20026;-76
2023/07/04 10:25:54;;;;;;;11.23;4.35;;;32.10;82.80;;;;;;5148811;27;20361;-74
2023/07/04 10:28:26;;;;;;;6.43;4.07;;;32.20;85.50;;;;;;5148046;27;20020;-74
2023/07/04 10:31:05;;;;;;;7.82;4.32;;;32.20;85.60;;;;;;5138642;27;20065;-74
2023/07/04 10:33:50;;;;;;;9.07;4.05;;;31.60;82.30;;;;;;5142828;27;20084;-77
2023/07/04 10:36:31;;;;;;;9.40;4.55;;;31.60;83.40;;;;;;5133881;27;20059;-75
2023/07/04 10:39:04;;;;;;;8.85;4.70;;;31.70;83.80;;;;;;5118904;28;20511;-74
2023/07/04 10:41:35;;;;;;;8.07;4.22;;;31.50;82.50;;;;;;5133415;27;20027;-84
2023/07/04 10:44:11;;;;;;;11.25;4.47;;;31.40;84.90;;;;;;5124211;27;20034;-84
2023/07/04 10:47:11;;;;;;;10.10;4.80;;;31.20;84.70;;;;;;5120103;28;20168;-84
2023/07/04 10:49:44;;;;;;;8.98;4.28;;;31.40;83.50;;;;;;5061201;28;20043;-75
2023/07/04 10:52:16;;;;;;;9.23;4.30;;;31.60;86.70;;;;;;5054581;28;20083;-86
2023/07/04 10:54:41;;;;;;;7.93;3.85;;;31.70;84.70;;;;;;5070622;28;20123;-73
2023/07/04 10:57:30;;;;;;;10.95;5.00;;;31.40;85.80;;;;;;5058562;28;20063;-88
2023/07/04 11:00:04;;;;;;;7.82;4.45;;;31.40;83.50;;;;;;5054194;28;20072;-86
2023/07/04 11:02:47;;;;;;;7.78;4.10;;;31.70;86.30;;;;;;5059259;28;20124;-86
2023/07/04 11:05:24;;;;;;;9.13;4.35;;;31.80;87.10;;;;;;5064070;28;20048;-74
2023/07/04 11:07:52;;;;;;;10.10;4.90;;;31.90;83.30;;;;;;5068011;28;20068;-87
2023/07/04 11:10:24;;;;;;;10.13;5.07;;;31.80;85.70;;;;;;5077713;28;20056;-85
2023/07/04 11:12:53;;;;;;;10.77;5.10;;;31.60;85.60;;;;;;5077334;28;20101;-75
2023/07/04 11:15:21;;;;;;;10.00;4.57;;;31.90;84.40;;;;;;5075762;28;20067;-74
2023/07/04 11:17:48;;;;;;;9.18;4.80;;;32.20;85.40;;;;;;5055196;28;20086;-74
2023/07/04 11:20:40;;;;;;;9.57;4.72;;;32.00;81.00;;;;;;5052639;28;20041;-73
2023/07/04 11:23:19;;;;;;;8.68;4.30;;;31.90;80.60;;;;;;5036974;28;20033;-78
2023/07/04 11:25:44;;;;;;;10.10;4.85;;;31.90;82.80;;;;;;5081179;27;20028;-73
2023/07/04 11:28:34;;;;;;;11.38;4.22;;;31.80;81.20;;;;;;5137140;27;20026;-74
2023/07/04 11:31:22;;;;;;;19.20;4.88;;;32.00;81.10;;;;;;5088707;28;20038;-83
2023/07/04 11:33:55;;;;;;;10.77;4.88;;;31.80;81.40;;;;;;5128058;27;20023;-74
2023/07/04 11:36:25;;;;;;;11.70;4.85;;;32.20;83.60;;;;;;5145080;27;20135;-74
2023/07/04 11:38:54;;;;;;;15.27;5.47;;;32.20;82.70;;;;;;5162397;27;20041;-85
2023/07/04 11:41:40;;;;;;;15.20;4.85;;;32.40;92.90;;;;;;5147106;27;20035;-83
2023/07/04 11:44:28;;;;;;;10.10;5.07;;;32.50;95.00;;;;;;5134214;27;20479;-77
2023/07/04 11:47:01;;;;;;;11.43;4.57;;;32.10;96.80;;;;;;5160217;27;20050;-76
2023/07/04 11:49:30;;;;;;;10.13;4.57;;;32.20;95.90;;;;;;5106553;28;20035;-74
2023/07/04 11:52:26;;;;;;;12.20;5.07;;;32.40;95.90;;;;;;5115888;28;20380;-86
2023/07/04 11:54:58;;;;;;;11.38;4.63;;;32.30;97.70;;;;;;5145236;27;20015;-75
2023/07/04 11:57:44;;;;;;;7.93;4.30;;;;;;;;;;5160453;27;20038;-85
2023/07/04 12:00:35;;;;;;;10.43;4.68;;;32.60;93.90;;;;;;5097916;28;20418;-84
2023/07/04 12:03:22;;;;;;;11.77;4.53;;;32.60;92.90;;;;;;5143675;27;20038;-74
2023/07/04 12:05:59;;;;;;;7.47;4.47;;;32.50;94.80;;;;;;5077167;28;20558;-81
2023/07/04 12:08:39;;;;;;;10.70;4.22;;;32.40;94.20;;;;;;5088136;28;20037;-87
2023/07/04 12:11:38;;;;;;;10.48;4.57;;;32.30;94.50;;;;;;5089255;28;20120;-73
2023/07/04 12:14:06;;;;;;;14.35;4.60;;;32.30;95.90;;;;;;5003361;28;20042;-87
2023/07/04 12:16:33;;;;;;;10.25;5.40;;;32.40;96.20;;;;;;5005380;28;20046;-73
2023/07/04 12:19:04;;;;;;;10.63;4.45;;;32.20;95.50;;;;;;5001834;28;20045;-74
2023/07/04 12:21:30;;;;;;;7.40;4.32;;;32.10;94.70;;;;;;4998370;28;20022;-74
2023/07/04 12:23:56;;;;;;;8.82;4.20;;;32.20;93.20;;;;;;5001356;28;20563;-73
2023/07/04 12:26:22;;;;;;;7.35;4.20;;;32.10;94.10;;;;;;5006413;28;20078;-83
2023/07/04 12:28:48;;;;;;;7.50;4.10;;;32.20;93.50;;;;;;5001996;28;20057;-87
2023/07/04 12:31:15;;;;;;;9.95;4.30;;;32.10;93.50;;;;;;4997526;28;20151;-83
2023/07/04 12:33:44;;;;;;;8.77;4.15;;;32.10;93.50;;;;;;4996817;28;20491;-76
2023/07/04 12:36:15;;;;;;;8.52;4.38;;;32.10;93.40;;;;;;4995931;28;20050;-79
2023/07/04 12:38:53;;;;;;;7.10;3.95;;;32.00;93.20;;;;;;5002827;28;20058;-82
2023/07/04 12:41:28;;;;;;;9.63;4.30;;;32.10;93.40;;;;;;5004178;28;20503;-74
2023/07/04 12:44:00;;;;;;;10.57;4.68;;;32.20;93.40;;;;;;5022410;28;20038;-74
2023/07/04 12:46:26;;;;;;;9.45;4.25;;;32.20;93.80;;;;;;5025832;28;20075;-74
2023/07/04 12:48:57;;;;;;;9.75;4.18;;;31.90;93.20;;;;;;5042856;28;20029;-74
2023/07/04 12:51:29;;;;;;;10.57;4.38;;;31.70;93.90;;;;;;5093508;27;20063;-83